Time;durP1;ratioP1;P1;durP2;ratioP2;P2;SDS_P1;SDS_P2;PMS_P1;PMS_P2;Temp;Humidity;BMP_temperature;BMP_pressure;BME280_temperature;BME280_humidity;BME280_pressure;Samples;Min_cycle;Max_cycle;Signal;HPM_P1;HPM_P2
2023/11/11 00:02:01;;;;;;;;;;;;;;;3.68;100.00;94299.34;10559177;27;2581;-71
2023/11/11 00:07:05;;;;;;;;;;;;;;;3.60;100.00;94291.91;10558445;27;2577;-71
2023/11/11 00:12:07;;;;;;;;;;;;;;;3.46;100.00;94288.19;10543306;27;2686;-71
2023/11/11 00:17:11;;;;;;;;;;;;;;;3.51;100.00;94275.72;10557165;27;2630;-70
2023/11/11 00:22:14;;;;;;;;;;;;;;;3.52;100.00;94273.84;10567652;27;2588;-72
2023/11/11 00:27:16;;;;;;;;;;;;;;;3.42;100.00;94250.72;10559808;27;2608;-71
2023/11/11 00:32:19;;;;;;;;;;;;;;;3.33;100.00;94259.50;10565688;27;2624;-71
2023/11/11 00:37:22;;;;;;;;;;;;;;;3.29;100.00;94255.78;10565028;27;2621;-72
2023/11/11 00:42:25;;;;;;;;;;;;;;;3.27;100.00;94248.06;10561985;27;4857;-71
2023/11/11 00:47:30;;;;;;;;;;;;;;;3.23;100.00;94245.13;10560085;27;2639;-72
2023/11/11 00:52:36;;;;;;;;;;;;;;;3.17;100.00;94256.81;10565713;27;2647;-72
2023/11/11 00:57:39;;;;;;;;;;;;;;;3.18;100.00;94261.09;10565732;27;2966;-71
2023/11/11 01:02:41;;;;;;;;;;;;;;;3.56;100.00;94260.81;10563107;27;2628;-75
2023/11/11 01:07:44;;;;;;;;;;;;;;;3.83;100.00;94263.22;10567710;27;2695;-70
2023/11/11 01:12:46;;;;;;;;;;;;;;;4.04;100.00;94267.41;10565012;28;2616;-72
2023/11/11 01:17:49;;;;;;;;;;;;;;;4.23;100.00;94243.69;10543054;28;2658;-72
2023/11/11 01:22:52;;;;;;;;;;;;;;;4.49;100.00;94263.03;10558704;28;2580;-71
2023/11/11 01:27:54;;;;;;;;;;;;;;;4.56;100.00;94245.69;10565085;28;2594;-70
2023/11/11 01:32:57;;;;;;;;;;;;;;;4.38;100.00;94242.84;10567344;28;2688;-70
2023/11/11 01:38:00;;;;;;;;;;;;;;;4.28;100.00;94247.16;10562975;28;2666;-72
2023/11/11 01:43:02;;;;;;;;;;;;;;;4.31;100.00;94235.94;10557105;27;4759;-71
2023/11/11 01:48:07;;;;;;;;;;;;;;;4.30;100.00;94239.69;10570785;27;2736;-72
2023/11/11 01:53:10;;;;;;;;;;;;;;;4.28;100.00;94238.38;10567927;27;2705;-71
2023/11/11 01:58:12;;;;;;;;;;;;;;;4.37;100.00;94250.03;10572107;27;2638;-74
2023/11/11 02:03:14;;;;;;;;;;;;;;;4.40;100.00;94249.50;10563434;27;2652;-73
2023/11/11 02:08:17;;;;;;;;;;;;;;;4.49;100.00;94257.72;10574203;27;2557;-71
2023/11/11 02:13:21;;;;;;;;;;;;;;;4.48;100.00;94266.75;10572188;27;2671;-72
2023/11/11 02:18:24;;;;;;;;;;;;;;;4.44;100.00;94265.69;10568450;27;2688;-72
2023/11/11 02:23:27;;;;;;;;;;;;;;;4.29;100.00;94245.28;10570655;27;2557;-73
2023/11/11 02:28:29;;;;;;;;;;;;;;;4.28;100.00;94249.00;10570620;27;2659;-73
2023/11/11 02:33:32;;;;;;;;;;;;;;;4.25;100.00;94237.03;10568405;27;2549;-73
2023/11/11 02:38:34;;;;;;;;;;;;;;;4.27;100.00;94242.91;10570319;27;2664;-73
2023/11/11 02:43:36;;;;;;;;;;;;;;;4.27;100.00;94244.75;10565475;27;4866;-72
2023/11/11 02:48:39;;;;;;;;;;;;;;;4.32;100.00;94247.38;10569697;27;2696;-74
2023/11/11 02:53:42;;;;;;;;;;;;;;;4.34;100.00;94248.72;10563235;27;2700;-71
2023/11/11 02:58:44;;;;;;;;;;;;;;;4.40;100.00;94254.03;10573928;27;2683;-74
2023/11/11 03:03:46;;;;;;;;;;;;;;;4.55;100.00;94256.63;10562956;27;2671;-72
2023/11/11 03:08:49;;;;;;;;;;;;;;;4.59;100.00;94247.81;10566196;27;2624;-71
2023/11/11 03:13:51;;;;;;;;;;;;;;;4.64;100.00;94254.97;10569096;27;2635;-73
2023/11/11 03:18:54;;;;;;;;;;;;;;;4.68;100.00;94249.91;10570421;27;2627;-74
2023/11/11 03:23:57;;;;;;;;;;;;;;;4.76;100.00;94252.00;10567631;27;2612;-71
2023/11/11 03:28:59;;;;;;;;;;;;;;;4.78;100.00;94245.34;10566593;27;2564;-72
2023/11/11 03:34:04;;;;;;;;;;;;;;;4.81;100.00;94250.09;10562374;27;2647;-73
2023/11/11 03:39:10;;;;;;;;;;;;;;;4.74;100.00;94249.63;10560493;27;2648;-72
2023/11/11 03:44:13;;;;;;;;;;;;;;;4.70;100.00;94253.88;10560345;27;4831;-72
2023/11/11 03:49:16;;;;;;;;;;;;;;;4.56;100.00;94251.03;10563455;27;2603;-72
2023/11/11 03:54:19;;;;;;;;;;;;;;;4.51;100.00;94243.06;10557879;27;2660;-73
2023/11/11 03:59:21;;;;;;;;;;;;;;;4.45;100.00;94240.69;10570724;27;2703;-72
2023/11/11 04:04:24;;;;;;;;;;;;;;;4.41;100.00;94237.00;10570432;27;2616;-72
2023/11/11 04:09:30;;;;;;;;;;;;;;;4.40;100.00;94246.84;10564198;27;2683;-71
2023/11/11 04:14:32;;;;;;;;;;;;;;;4.36;100.00;94255.63;10568444;27;2679;-70
2023/11/11 04:19:35;;;;;;;;;;;;;;;4.34;100.00;94251.38;10561233;27;2569;-72
2023/11/11 04:24:37;;;;;;;;;;;;;;;4.40;100.00;94265.47;10561531;27;2708;-71
2023/11/11 04:29:40;;;;;;;;;;;;;;;4.43;100.00;94248.16;10558822;27;2675;-69
2023/11/11 04:34:43;;;;;;;;;;;;;;;4.48;100.00;94262.22;10563750;27;2786;-72
2023/11/11 04:39:46;;;;;;;;;;;;;;;4.46;100.00;94271.56;10557501;27;2600;-71
2023/11/11 04:44:51;;;;;;;;;;;;;;;4.43;100.00;94277.41;10565199;27;5102;-74
2023/11/11 04:49:54;;;;;;;;;;;;;;;4.41;100.00;94277.69;10567215;27;2623;-70
2023/11/11 04:54:56;;;;;;;;;;;;;;;4.57;100.00;94283.75;10565043;27;2540;-70
2023/11/11 04:59:59;;;;;;;;;;;;;;;4.65;100.00;94282.41;10544505;27;2667;-71
2023/11/11 05:05:01;;;;;;;;;;;;;;;4.65;100.00;94293.84;10563613;27;2613;-71
2023/11/11 05:10:05;;;;;;;;;;;;;;;4.75;100.00;94303.66;10561297;27;2708;-70
2023/11/11 05:15:14;;;;;;;;;;;;;;;4.81;100.00;94307.88;10566241;27;2623;-71
2023/11/11 05:20:17;;;;;;;;;;;;;;;4.90;100.00;94319.56;10567846;27;2583;-72
2023/11/11 05:25:22;;;;;;;;;;;;;;;5.01;100.00;94326.41;10568320;27;2662;-71
2023/11/11 05:30:26;;;;;;;;;;;;;;;5.13;100.00;94320.78;10567413;27;2624;-71
2023/11/11 05:35:30;;;;;;;;;;;;;;;5.15;100.00;94327.44;10569844;27;2597;-71
2023/11/11 05:40:33;;;;;;;;;;;;;;;5.16;100.00;94346.88;10570754;27;2615;-71
2023/11/11 05:45:36;;;;;;;;;;;;;;;5.21;100.00;94354.81;10567897;27;4858;-71
2023/11/11 05:50:38;;;;;;;;;;;;;;;5.20;100.00;94371.88;10570478;27;2656;-71
2023/11/11 05:55:41;;;;;;;;;;;;;;;5.19;100.00;94380.94;10571969;27;2656;-70
2023/11/11 06:00:43;;;;;;;;;;;;;;;5.11;100.00;94392.19;10564690;27;2675;-71
2023/11/11 06:05:46;;;;;;;;;;;;;;;5.05;100.00;94414.56;10566099;27;2614;-71
2023/11/11 06:10:51;;;;;;;;;;;;;;;4.88;100.00;94436.97;10571534;27;2753;-73
2023/11/11 06:15:55;;;;;;;;;;;;;;;4.78;100.00;94446.88;10566758;27;2670;-71
2023/11/11 06:20:59;;;;;;;;;;;;;;;4.74;100.00;94443.94;10568867;27;2580;-73
2023/11/11 06:26:02;;;;;;;;;;;;;;;4.71;100.00;94451.66;10563350;27;2688;-75
2023/11/11 06:31:04;;;;;;;;;;;;;;;4.66;100.00;94449.81;10542556;27;2655;-73
2023/11/11 06:36:07;;;;;;;;;;;;;;;4.66;100.00;94467.66;10568403;27;3300;-71
2023/11/11 06:41:09;;;;;;;;;;;;;;;4.70;100.00;94482.81;10566468;27;2760;-71
2023/11/11 06:46:13;;;;;;;;;;;;;;;4.77;100.00;94471.88;10562434;27;4783;-72
2023/11/11 06:51:16;;;;;;;;;;;;;;;4.86;100.00;94487.06;10565688;27;2573;-71
2023/11/11 06:56:19;;;;;;;;;;;;;;;5.00;100.00;94491.81;10562072;27;2691;-71
2023/11/11 07:01:23;;;;;;;;;;;;;;;5.11;100.00;94474.75;10561023;27;2631;-72
2023/11/11 07:06:26;;;;;;;;;;;;;;;5.26;100.00;94485.34;10538239;27;2601;-74
2023/11/11 07:11:28;;;;;;;;;;;;;;;5.33;100.00;94483.19;10562937;27;3032;-72
2023/11/11 07:16:32;;;;;;;;;;;;;;;5.55;100.00;94500.72;10568168;27;2675;-72
2023/11/11 07:21:35;;;;;;;;;;;;;;;5.64;100.00;94507.88;10564553;27;2687;-72
2023/11/11 07:26:41;;;;;;;;;;;;;;;5.75;100.00;94505.16;10556883;27;2565;-74
2023/11/11 07:31:45;;;;;;;;;;;;;;;5.73;100.00;94532.13;10560690;27;3085;-70
2023/11/11 07:36:47;;;;;;;;;;;;;;;5.83;100.00;94526.72;10565980;27;2604;-73
2023/11/11 07:41:50;;;;;;;;;;;;;;;5.82;100.00;94551.78;10568655;27;2576;-72
2023/11/11 07:46:53;;;;;;;;;;;;;;;5.85;100.00;94545.94;10559876;27;4818;-72
2023/11/11 07:51:55;;;;;;;;;;;;;;;5.86;100.00;94558.19;10557312;27;2670;-74
2023/11/11 07:56:58;;;;;;;;;;;;;;;5.93;100.00;94572.06;10559009;27;2622;-70
2023/11/11 08:02:01;;;;;;;;;;;;;;;5.79;100.00;94580.84;10562141;27;2855;-71
2023/11/11 08:07:03;;;;;;;;;;;;;;;5.97;100.00;94590.97;10559630;27;2577;-71
2023/11/11 08:12:06;;;;;;;;;;;;;;;6.28;100.00;94588.16;10559620;27;2647;-71
2023/11/11 08:17:09;;;;;;;;;;;;;;;6.52;100.00;94591.75;10567027;27;2677;-70
2023/11/11 08:22:11;;;;;;;;;;;;;;;6.68;100.00;94600.44;10555946;27;2592;-72
2023/11/11 08:27:14;;;;;;;;;;;;;;;6.59;100.00;94610.13;10559829;27;2557;-72
2023/11/11 08:32:17;;;;;;;;;;;;;;;6.71;100.00;94616.72;10553634;27;2636;-71
2023/11/11 08:37:20;;;;;;;;;;;;;;;6.52;100.00;94623.00;10561431;27;3053;-73
2023/11/11 08:42:22;;;;;;;;;;;;;;;6.60;100.00;94620.53;10558468;27;4806;-71
2023/11/11 08:47:25;;;;;;;;;;;;;;;6.64;100.00;94626.94;10557586;27;2609;-71
2023/11/11 08:52:27;;;;;;;;;;;;;;;6.85;100.00;94635.59;10561847;27;2613;-72
2023/11/11 08:57:30;;;;;;;;;;;;;;;6.99;100.00;94649.91;10558365;27;2568;-71
2023/11/11 09:02:34;;;;;;;;;;;;;;;6.90;100.00;94659.59;10553963;27;2660;-70
2023/11/11 09:07:36;;;;;;;;;;;;;;;6.70;100.00;94652.53;10556393;27;2771;-70
2023/11/11 09:12:39;;;;;;;;;;;;;;;6.40;100.00;94668.69;10556277;27;2640;-71
2023/11/11 09:17:41;;;;;;;;;;;;;;;6.20;100.00;94664.25;10556429;28;2681;-70
2023/11/11 09:22:44;;;;;;;;;;;;;;;6.35;100.00;94661.50;10552030;28;2607;-71
2023/11/11 09:27:46;;;;;;;;;;;;;;;6.47;100.00;94659.31;10561005;28;2630;-72
2023/11/11 09:32:51;;;;;;;;;;;;;;;6.64;100.00;94655.50;10554417;28;2671;-71
2023/11/11 09:37:53;;;;;;;;;;;;;;;6.88;100.00;94669.78;10557066;28;2581;-71
2023/11/11 09:42:55;;;;;;;;;;;;;;;6.79;100.00;94676.78;10555756;28;4783;-71
2023/11/11 09:48:00;;;;;;;;;;;;;;;6.83;100.00;94677.81;10553129;28;2734;-72
2023/11/11 09:53:03;;;;;;;;;;;;;;;6.92;100.00;94680.69;10564031;28;2046;-72
2023/11/11 09:58:06;;;;;;;;;;;;;;;7.19;100.00;94678.41;10568147;28;2332;-71
2023/11/11 10:03:08;;;;;;;;;;;;;;;7.88;100.00;94681.00;10564098;28;1974;-71
2023/11/11 10:08:11;;;;;;;;;;;;;;;8.38;100.00;94685.03;10561600;28;1868;-71
2023/11/11 10:13:13;;;;;;;;;;;;;;;8.44;100.00;94683.09;10573961;28;1534;-71
2023/11/11 10:18:16;;;;;;;;;;;;;;;8.92;100.00;94681.94;10562550;28;1448;-74
2023/11/11 10:23:18;;;;;;;;;;;;;;;8.25;100.00;94677.66;10567804;28;1916;-71
2023/11/11 10:28:21;;;;;;;;;;;;;;;8.00;100.00;94674.19;10561268;28;2052;-73
2023/11/11 10:33:27;;;;;;;;;;;;;;;8.00;100.00;94679.53;10566495;27;1555;-69
2023/11/11 10:38:31;;;;;;;;;;;;;;;7.83;100.00;94679.97;10569497;28;2199;-73
2023/11/11 10:43:40;;;;;;;;;;;;;;;7.86;100.00;94681.28;10576356;27;4862;-72
2023/11/11 10:48:42;;;;;;;;;;;;;;;7.70;100.00;94675.28;10569256;28;1964;-73
2023/11/11 10:53:45;;;;;;;;;;;;;;;7.56;100.00;94685.03;10574513;27;1883;-72
2023/11/11 10:58:48;;;;;;;;;;;;;;;7.46;100.00;94683.25;10567927;27;2687;-75
2023/11/11 11:03:54;;;;;;;;;;;;;;;7.30;100.00;94681.78;10548799;28;1918;-70
2023/11/11 11:08:56;;;;;;;;;;;;;;;7.14;100.00;94693.66;10567891;27;2589;-70
2023/11/11 11:13:59;;;;;;;;;;;;;;;6.98;100.00;94680.38;10568551;28;1810;-72
2023/11/11 11:19:02;;;;;;;;;;;;;;;7.10;100.00;94697.97;10557690;28;2541;-73
2023/11/11 11:24:05;;;;;;;;;;;;;;;7.12;100.00;94693.13;10573827;27;2779;-73
2023/11/11 11:29:07;;;;;;;;;;;;;;;7.40;100.00;94692.41;10580940;27;2610;-72
2023/11/11 11:34:09;;;;;;;;;;;;;;;7.72;100.00;94683.03;10568369;27;2580;-71
2023/11/11 11:39:18;;;;;;;;;;;;;;;7.61;100.00;94686.88;10563327;27;2621;-72
2023/11/11 11:44:23;;;;;;;;;;;;;;;7.78;100.00;94690.72;10568414;28;4905;-73
2023/11/11 11:49:27;;;;;;;;;;;;;;;7.75;100.00;94693.16;10558485;28;1713;-71
2023/11/11 11:54:31;;;;;;;;;;;;;;;7.88;100.00;94684.47;10564897;28;1523;-72
2023/11/11 11:59:34;;;;;;;;;;;;;;;7.51;100.00;94693.91;10565256;28;1526;-72
2023/11/11 12:04:39;;;;;;;;;;;;;;;7.35;100.00;94687.09;10561748;28;1997;-73
2023/11/11 12:09:44;;;;;;;;;;;;;;;8.01;100.00;94685.69;10566335;28;1545;-72
2023/11/11 12:14:47;;;;;;;;;;;;;;;8.56;100.00;94683.47;10565532;28;1480;-73
2023/11/11 12:19:50;;;;;;;;;;;;;;;8.52;100.00;94680.56;10563630;27;1401;-74
2023/11/11 12:24:53;;;;;;;;;;;;;;;7.45;100.00;94692.34;10569119;28;1905;-73
2023/11/11 12:29:58;;;;;;;;;;;;;;;6.38;100.00;94750.94;10557008;28;1563;-72
2023/11/11 12:35:01;;;;;;;;;;;;;;;4.97;100.00;94769.34;10558096;28;2498;-72
2023/11/11 12:40:04;;;;;;;;;;;;;;;4.97;100.00;94764.00;10564571;28;1412;-74
2023/11/11 12:45:07;;;;;;;;;;;;;;;5.39;100.00;94777.91;10569296;28;4871;-73
2023/11/11 12:50:10;;;;;;;;;;;;;;;5.75;100.00;94767.28;10567626;28;1521;-73
2023/11/11 12:55:13;;;;;;;;;;;;;;;6.43;100.00;94764.28;10571262;27;1813;-73
2023/11/11 13:00:16;;;;;;;;;;;;;;;6.81;100.00;94744.09;10563767;28;1790;-75
2023/11/11 13:05:18;;;;;;;;;;;;;;;6.84;100.00;94742.72;10568223;28;1925;-72
2023/11/11 13:10:22;;;;;;;;;;;;;;;6.78;100.00;94747.28;10572895;27;1718;-73
2023/11/11 13:15:25;;;;;;;;;;;;;;;6.67;100.00;94746.53;10560578;28;1487;-73
2023/11/11 13:20:28;;;;;;;;;;;;;;;6.74;100.00;94746.22;10568107;28;1473;-72
2023/11/11 13:25:30;;;;;;;;;;;;;;;6.86;100.00;94746.72;10569198;28;1917;-74
2023/11/11 13:30:33;;;;;;;;;;;;;;;6.92;100.00;94734.94;10568537;28;2268;-73
2023/11/11 13:35:35;;;;;;;;;;;;;;;6.87;100.00;94747.50;10567909;28;1409;-73
2023/11/11 13:40:40;;;;;;;;;;;;;;;6.82;100.00;94740.34;10572896;27;1683;-74
2023/11/11 13:45:46;;;;;;;;;;;;;;;6.90;100.00;94753.13;10573594;28;4799;-72
2023/11/11 13:50:55;;;;;;;;;;;;;;;6.79;100.00;94746.22;10575987;27;1478;-72
2023/11/11 13:56:13;;;;;;;;;;;;;;;6.52;100.00;94753.81;10565039;28;1590;-70
2023/11/11 14:01:17;;;;;;;;;;;;;;;6.47;100.00;94755.41;10575864;28;1983;-74
2023/11/11 14:06:24;;;;;;;;;;;;;;;6.54;100.00;94765.00;10581006;27;1848;-74
2023/11/11 14:11:30;;;;;;;;;;;;;;;6.46;100.00;94774.38;10549952;28;1472;-72
2023/11/11 14:16:39;;;;;;;;;;;;;;;6.38;100.00;94778.41;10571602;28;1674;-71
2023/11/11 14:21:46;;;;;;;;;;;;;;;6.06;100.00;94784.09;10571632;28;1972;-70
2023/11/11 14:26:52;;;;;;;;;;;;;;;5.88;100.00;94793.41;10568551;27;1707;-71
2023/11/11 14:31:56;;;;;;;;;;;;;;;5.84;100.00;94796.88;10554048;27;1360;-70
2023/11/11 14:37:06;;;;;;;;;;;;;;;5.66;100.00;94798.19;10554498;28;2715;-71
2023/11/11 14:42:13;;;;;;;;;;;;;;;5.37;100.00;94806.72;10563276;28;1918;-75
2023/11/11 14:47:19;;;;;;;;;;;;;;;5.21;100.00;94812.25;10567133;28;1487;-70
2023/11/11 14:52:30;;;;;;;;;;;;;;;5.34;100.00;94801.91;10548812;28;1713;-71
2023/11/11 14:57:38;;;;;;;;;;;;;;;5.33;100.00;94812.81;10566147;28;1428;-70
2023/11/11 15:02:47;;;;;;;;;;;;;;;5.37;100.00;94813.91;10563926;28;1959;-71
2023/11/11 15:07:53;;;;;;;;;;;;;;;5.36;100.00;94828.31;10564509;27;1530;-72
2023/11/11 15:12:58;;;;;;;;;;;;;;;5.34;100.00;94833.91;10552788;28;1496;-71
2023/11/11 15:18:16;;;;;;;;;;;;;;;5.19;100.00;94841.84;10574080;28;1553;-71
2023/11/11 15:28:41;;;;;;;;;;;;;;;5.07;100.00;94842.06;10574823;27;1428;-74
2023/11/11 15:33:52;;;;;;;;;;;;;;;5.09;100.00;94863.09;10553179;27;1587;-74
2023/11/11 15:39:13;;;;;;;;;;;;;;;5.01;100.00;94852.97;10556373;28;1935;-71
2023/11/11 15:44:16;;;;;;;;;;;;;;;4.86;100.00;94865.16;10569485;27;1901;-71
2023/11/11 15:49:22;;;;;;;;;;;;;;;4.71;100.00;94866.94;10550875;27;1514;-72
2023/11/11 15:54:48;;;;;;;;;;;;;;;4.61;100.00;94873.03;10547271;28;1455;-72
2023/11/11 15:59:53;;;;;;;;;;;;;;;4.72;100.00;94879.22;10550502;28;1416;-69
2023/11/11 16:04:56;;;;;;;;;;;;;;;4.73;100.00;94884.28;10566122;28;2888;-71
2023/11/11 16:10:04;;;;;;;;;;;;;;;4.64;100.00;94893.00;10565350;27;1555;-70
2023/11/11 16:15:11;;;;;;;;;;;;;;;4.64;100.00;94896.44;10565305;27;1616;-70
2023/11/11 16:20:18;;;;;;;;;;;;;;;4.72;100.00;94903.97;10569188;27;1508;-70
2023/11/11 16:30:44;;;;;;;;;;;;;;;4.46;100.00;94916.31;10572660;27;2145;-72
2023/11/11 16:35:56;;;;;;;;;;;;;;;4.44;100.00;94921.06;10566395;28;1764;-73
2023/11/11 16:41:01;;;;;;;;;;;;;;;4.53;100.00;94930.19;10550348;28;1491;-73
2023/11/11 16:46:05;;;;;;;;;;;;;;;4.46;100.00;94934.94;10555267;28;5175;-73
2023/11/11 16:51:10;;;;;;;;;;;;;;;4.54;100.00;94939.00;10554702;27;2553;-72
2023/11/11 16:56:17;;;;;;;;;;;;;;;4.49;100.00;94933.63;10535523;27;2675;-71
2023/11/11 17:01:25;;;;;;;;;;;;;;;4.51;100.00;94942.16;10552712;27;2721;-72
2023/11/11 17:06:28;;;;;;;;;;;;;;;4.41;100.00;94932.25;10559211;27;2787;-71
2023/11/11 17:11:32;;;;;;;;;;;;;;;4.34;100.00;94932.47;10539990;28;2690;-71
2023/11/11 17:16:44;;;;;;;;;;;;;;;4.28;100.00;94944.13;10553805;28;2644;-70
2023/11/11 17:27:24;;;;;;;;;;;;;;;4.21;100.00;94956.03;10555515;28;2667;-72
2023/11/11 17:32:41;;;;;;;;;;;;;;;4.29;100.00;94961.69;10541121;28;2621;-71
2023/11/11 17:37:44;;;;;;;;;;;;;;;4.25;100.00;94965.91;10555172;28;2671;-70
2023/11/11 17:42:47;;;;;;;;;;;;;;;4.16;100.00;94959.44;10533982;28;2611;-71
2023/11/11 17:47:55;;;;;;;;;;;;;;;4.15;100.00;94973.00;10539323;28;2759;-69
2023/11/11 17:53:04;;;;;;;;;;;;;;;4.11;100.00;94975.34;10541196;28;2555;-71
2023/11/11 17:58:22;;;;;;;;;;;;;;;4.03;100.00;94981.13;10556947;28;2646;-71
2023/11/11 18:03:27;;;;;;;;;;;;;;;4.10;100.00;94994.22;10538738;28;2561;-71
2023/11/11 18:08:41;;;;;;;;;;;;;;;4.01;100.00;94993.91;10530099;27;2674;-69
2023/11/11 18:13:45;;;;;;;;;;;;;;;3.92;100.00;94998.03;10559343;28;2722;-70
2023/11/11 18:18:48;;;;;;;;;;;;;;;3.87;100.00;95001.44;10563718;28;2482;-71
2023/11/11 18:24:01;;;;;;;;;;;;;;;3.96;100.00;94999.97;10566124;28;2003;-72
2023/11/11 18:29:08;;;;;;;;;;;;;;;3.98;100.00;94997.03;10574727;28;1490;-70
2023/11/11 18:34:15;;;;;;;;;;;;;;;4.01;100.00;94988.56;10561584;28;2028;-70
2023/11/11 18:39:23;;;;;;;;;;;;;;;3.88;100.00;94997.75;10563868;28;2509;-71
2023/11/11 18:44:28;;;;;;;;;;;;;;;3.90;100.00;95000.16;10572276;28;4734;-71
2023/11/11 18:49:34;;;;;;;;;;;;;;;3.83;100.00;95012.84;10571084;27;1605;-68
2023/11/11 18:54:49;;;;;;;;;;;;;;;3.74;100.00;95018.59;10547200;27;1496;-73
2023/11/11 18:59:57;;;;;;;;;;;;;;;3.72;100.00;95017.25;10556108;28;1460;-71
2023/11/11 19:05:01;;;;;;;;;;;;;;;3.61;100.00;95024.28;10568255;27;1953;-73
2023/11/11 19:10:11;;;;;;;;;;;;;;;3.55;100.00;95030.59;10570049;27;1531;-71
2023/11/11 19:15:15;;;;;;;;;;;;;;;3.54;100.00;95026.31;10563476;27;1488;-70
2023/11/11 19:20:21;;;;;;;;;;;;;;;3.55;100.00;95030.59;10548933;27;1474;-70
2023/11/11 19:25:24;;;;;;;;;;;;;;;3.54;100.00;95031.63;10542978;27;1906;-68
2023/11/11 19:30:27;;;;;;;;;;;;;;;3.48;100.00;95035.28;10545718;28;1928;-71
2023/11/11 19:35:46;;;;;;;;;;;;;;;3.50;100.00;95028.69;10559362;28;2279;-70
2023/11/11 19:40:57;;;;;;;;;;;;;;;3.53;100.00;95032.69;10543415;28;2695;-69
2023/11/11 19:46:01;;;;;;;;;;;;;;;3.50;100.00;95038.53;10560435;28;4883;-71
2023/11/11 19:51:04;;;;;;;;;;;;;;;3.37;100.00;95049.47;10552505;28;3022;-69
2023/11/11 19:56:18;;;;;;;;;;;;;;;3.43;100.00;95049.31;10541411;28;2539;-70
2023/11/11 20:01:25;;;;;;;;;;;;;;;3.36;100.00;95048.69;10554732;28;2656;-70
2023/11/11 20:06:27;;;;;;;;;;;;;;;3.53;100.00;95059.28;10540631;28;2642;-69
2023/11/11 20:11:30;;;;;;;;;;;;;;;3.70;100.00;95053.91;10558292;28;2666;-70
2023/11/11 20:16:38;;;;;;;;;;;;;;;3.84;100.00;95054.31;10538319;28;2581;-68
2023/11/11 20:21:51;;;;;;;;;;;;;;;3.92;100.00;95046.69;10541666;28;2601;-70
2023/11/11 20:26:56;;;;;;;;;;;;;;;4.02;100.00;95056.66;10559924;28;2607;-72
2023/11/11 20:32:08;;;;;;;;;;;;;;;4.05;100.00;95053.50;10499335;28;1771719;-69
2023/11/11 20:37:18;;;;;;;;;;;;;;;4.09;100.00;95051.94;10559206;28;2213;-69
2023/11/11 20:42:28;;;;;;;;;;;;;;;4.17;100.00;95050.69;10558827;28;4686;-70
2023/11/11 20:47:39;;;;;;;;;;;;;;;4.22;100.00;95058.72;10538582;27;2687;-70
2023/11/11 20:52:53;;;;;;;;;;;;;;;4.31;100.00;95054.53;10541787;27;2556;-73
2023/11/11 20:57:57;;;;;;;;;;;;;;;4.34;100.00;95067.38;10556581;27;2573;-70
2023/11/11 21:03:03;;;;;;;;;;;;;;;4.40;100.00;95062.91;10555288;27;2620;-73
2023/11/11 21:08:12;;;;;;;;;;;;;;;4.38;100.00;95057.81;10555638;27;2624;-70
2023/11/11 21:13:16;;;;;;;;;;;;;;;4.44;100.00;95058.66;10541734;27;2593;-71
2023/11/11 21:18:22;;;;;;;;;;;;;;;4.44;100.00;95053.34;10557998;27;2540;-73
2023/11/11 21:23:36;;;;;;;;;;;;;;;4.48;100.00;95055.25;10541927;28;2963;-71
2023/11/11 21:28:41;;;;;;;;;;;;;;;4.54;100.00;95053.44;10561469;28;2607;-72
2023/11/11 21:33:44;;;;;;;;;;;;;;;4.55;100.00;95047.84;10522959;28;2644;-70
2023/11/11 21:38:47;;;;;;;;;;;;;;;4.58;100.00;95044.69;10551077;28;2698;-71
2023/11/11 21:43:53;;;;;;;;;;;;;;;4.65;100.00;95055.13;10555180;28;4770;-71
2023/11/11 21:49:08;;;;;;;;;;;;;;;4.65;100.00;95036.50;10553759;28;2613;-70
2023/11/11 21:54:12;;;;;;;;;;;;;;;4.68;100.00;95043.97;10554291;28;2630;-71
2023/11/11 21:59:18;;;;;;;;;;;;;;;4.74;100.00;95037.63;10569387;28;2626;-73
2023/11/11 22:04:23;;;;;;;;;;;;;;;4.73;100.00;95030.69;10561348;27;2805;-69
2023/11/11 22:09:30;;;;;;;;;;;;;;;4.76;100.00;95024.06;10566909;27;2727;-69
2023/11/11 22:14:42;;;;;;;;;;;;;;;4.70;100.00;95025.88;10554365;27;2667;-72
2023/11/11 22:19:59;;;;;;;;;;;;;;;4.73;100.00;95013.94;10570511;27;2631;-70
2023/11/11 22:25:03;;;;;;;;;;;;;;;4.72;100.00;95018.44;10562637;27;2630;-69
2023/11/11 22:30:13;;;;;;;;;;;;;;;4.71;100.00;95011.53;10562520;27;2987;-68
2023/11/11 22:35:17;;;;;;;;;;;;;;;4.74;100.00;95012.88;10542875;27;2748;-69
2023/11/11 22:40:21;;;;;;;;;;;;;;;4.74;100.00;95016.31;10558658;27;2695;-71
2023/11/11 22:45:24;;;;;;;;;;;;;;;4.67;100.00;95014.94;10547820;27;4736;-70
2023/11/11 22:50:30;;;;;;;;;;;;;;;4.60;100.00;95013.28;10566578;28;2039;-67
2023/11/11 22:55:37;;;;;;;;;;;;;;;4.63;100.00;95011.97;10565118;28;2436;-69
2023/11/11 23:00:45;;;;;;;;;;;;;;;4.61;100.00;95001.59;10564850;28;1847;-68
2023/11/11 23:05:49;;;;;;;;;;;;;;;4.63;100.00;95009.31;10571532;28;2011;-71
2023/11/11 23:16:11;;;;;;;;;;;;;;;4.61;100.00;95006.91;10565816;28;1579;-70
2023/11/11 23:21:26;;;;;;;;;;;;;;;4.56;100.00;95011.38;10563513;28;2874;-72
2023/11/11 23:26:30;;;;;;;;;;;;;;;4.47;100.00;95004.94;10564812;28;1910;-71
2023/11/11 23:31:33;;;;;;;;;;;;;;;4.43;100.00;95006.50;10566299;27;1620;-70
2023/11/11 23:36:36;;;;;;;;;;;;;;;4.53;100.00;95004.72;10568862;27;1476;-71
2023/11/11 23:41:40;;;;;;;;;;;;;;;4.55;100.00;95004.47;10568173;27;1921;-70
2023/11/11 23:46:46;;;;;;;;;;;;;;;4.65;100.00;95007.22;10552767;27;4820;-68
2023/11/11 23:51:49;;;;;;;;;;;;;;;4.64;100.00;95000.25;10571816;27;1516;-69
